Time;durP1;ratioP1;P1;durP2;ratioP2;P2;SDS_P1;SDS_P2;PMS_P1;PMS_P2;Temp;Humidity;BMP_temperature;BMP_pressure;BME280_temperature;BME280_humidity;BME280_pressure;Samples;Min_cycle;Max_cycle;Signal;HPM_P1;HPM_P2
2022/07/28 00:00:27;;;;;;;6.82;2.00;;;;;;;;;;4929692;28;20042;-71
2022/07/28 00:02:52;;;;;;;5.78;1.77;;;;;;;;;;4933697;28;20109;-71
2022/07/28 00:05:20;;;;;;;5.13;1.90;;;;;;;;;;4931520;28;20045;-71
2022/07/28 00:07:46;;;;;;;7.60;1.75;;;;;;;;;;4929954;28;22376;-71
2022/07/28 00:10:11;;;;;;;6.93;2.00;;;;;;;;;;4939686;28;20047;-71
2022/07/28 00:12:39;;;;;;;4.47;2.20;;;;;;;;;;4933237;28;20035;-71
2022/07/28 00:15:04;;;;;;;5.32;1.95;;;;;;;;;;4935057;28;20030;-72
2022/07/28 00:17:30;;;;;;;7.75;2.10;;;;;;;;;;4933953;28;20495;-71
2022/07/28 00:19:56;;;;;;;5.70;2.33;;;;;;;;;;4935508;28;20038;-71
2022/07/28 00:22:21;;;;;;;7.88;2.35;;;;;;;;;;4935059;28;20030;-71
2022/07/28 00:24:46;;;;;;;7.95;2.40;;;;;;;;;;4934832;28;20042;-71
2022/07/28 00:27:13;;;;;;;6.93;2.38;;;;;;;;;;4934705;28;20103;-71
2022/07/28 00:29:38;;;;;;;6.35;2.13;;;;;;;;;;4934456;28;20030;-72
2022/07/28 00:32:06;;;;;;;7.90;2.10;;;;;;;;;;4934809;28;20042;-71
2022/07/28 00:34:32;;;;;;;7.95;2.05;;;;;;;;;;4933850;28;20034;-72
2022/07/28 00:36:57;;;;;;;6.50;2.10;;;;;;;;;;4934631;28;20035;-70
2022/07/28 00:39:23;;;;;;;6.38;2.40;;;;;;;;;;4934592;28;20031;-71
2022/07/28 00:41:48;;;;;;;5.32;1.95;;;;;;;;;;4935658;28;20110;-69
2022/07/28 00:44:13;;;;;;;6.38;2.65;;;;;;;;;;4937079;28;20142;-70
2022/07/28 00:46:41;;;;;;;5.72;2.22;;;;;;;;;;4936080;28;20086;-70
2022/07/28 00:49:06;;;;;;;6.45;2.38;;;;;;;;;;4936623;28;20034;-71
2022/07/28 00:51:32;;;;;;;6.05;2.42;;;;;;;;;;4944122;28;20038;-70
2022/07/28 00:54:00;;;;;;;5.75;2.25;;;;;;;;;;4941001;28;20031;-70
2022/07/28 00:56:25;;;;;;;6.20;1.70;;;;;;;;;;4937334;28;20042;-73
2022/07/28 00:58:51;;;;;;;9.23;2.30;;;;;;;;;;4940859;28;20423;-71
2022/07/28 01:01:19;;;;;;;7.03;1.80;;;;;;;;;;4936928;28;20185;-71
2022/07/28 01:03:55;;;;;;;8.95;2.38;;;;;;;;;;4935305;28;20038;-70
2022/07/28 01:06:30;;;;;;;10.02;2.15;;;;;;;;;;4950173;28;20042;-72
2022/07/28 01:09:09;;;;;;;8.30;1.88;;;;;;;;;;4936629;28;20971;-72
2022/07/28 01:11:51;;;;;;;3.65;1.23;;;;;;;;;;4937114;28;20043;-72
2022/07/28 01:14:22;;;;;;;6.03;1.40;;;;;;;;;;4939041;28;20197;-72
2022/07/28 01:16:55;;;;;;;8.40;1.55;;;;;;;;;;4955010;28;20040;-71
2022/07/28 01:19:25;;;;;;;4.20;1.00;;;;;;;;;;4936425;28;20520;-73
2022/07/28 01:21:54;;;;;;;2.78;1.00;;;;;;;;;;4934855;28;20069;-72
2022/07/28 01:24:26;;;;;;;3.15;1.15;;;;;;;;;;4936279;28;20145;-72
2022/07/28 01:27:06;;;;;;;5.32;1.30;;;;;;;;;;4936115;28;20037;-72
2022/07/28 01:29:33;;;;;;;4.13;1.00;;;;;;;;;;4936771;28;20128;-71
2022/07/28 01:32:02;;;;;;;5.03;1.10;;;;;;;;;;4935586;28;20046;-70
2022/07/28 01:34:40;;;;;;;2.03;1.10;;;;;;;;;;4936064;28;20058;-71
2022/07/28 01:37:16;;;;;;;6.15;1.25;;;;;;;;;;4936072;28;20039;-71
2022/07/28 01:39:42;;;;;;;4.35;1.35;;;;;;;;;;4935856;28;20034;-71
2022/07/28 01:42:08;;;;;;;5.72;1.60;;;;;;;;;;4935976;28;20077;-72
2022/07/28 01:44:39;;;;;;;3.72;1.73;;;;;;;;;;4934909;28;20037;-71
2022/07/28 01:47:11;;;;;;;5.47;1.83;;;;;;;;;;4935504;28;20035;-72
2022/07/28 01:49:37;;;;;;;4.65;1.40;;;;;;;;;;4935535;28;20043;-70
2022/07/28 01:52:05;;;;;;;4.03;1.40;;;;;;;;;;4936240;28;20062;-71
2022/07/28 01:54:31;;;;;;;5.70;1.40;;;;;;;;;;4935416;28;20046;-71
2022/07/28 01:56:58;;;;;;;4.55;1.45;;;;;;;;;;4935713;28;20213;-71
2022/07/28 01:59:28;;;;;;;3.97;1.27;;;;;;;;;;4934197;28;20032;-71
2022/07/28 02:01:57;;;;;;;5.05;1.40;;;;;;;;;;4934048;28;20839;-72
2022/07/28 02:04:24;;;;;;;5.68;1.40;;;;;;;;;;4934602;28;20830;-71
2022/07/28 02:06:51;;;;;;;5.22;1.27;;;;;;;;;;4935039;28;20035;-71
2022/07/28 02:09:17;;;;;;;5.47;1.40;;;;;;;;;;4935336;28;20774;-71
2022/07/28 02:11:46;;;;;;;4.60;1.50;;;;;;;;;;4935424;28;20086;-72
2022/07/28 02:14:16;;;;;;;4.80;1.30;;;;;;;;;;4934722;28;20045;-71
2022/07/28 02:16:45;;;;;;;4.90;1.30;;;;;;;;;;4935300;28;20038;-71
2022/07/28 02:19:12;;;;;;;5.10;1.48;;;;;;;;;;4935374;28;20633;-71
2022/07/28 02:21:37;;;;;;;4.43;1.50;;;;;;;;;;4935524;28;20857;-71
2022/07/28 02:24:04;;;;;;;4.80;1.30;;;;;;;;;;4933696;28;20047;-72
2022/07/28 02:26:34;;;;;;;2.55;1.17;;;;;;;;;;4935849;28;20034;-72
2022/07/28 02:29:00;;;;;;;4.80;1.42;;;;;;;;;;4934698;28;21088;-71
2022/07/28 02:31:35;;;;;;;5.45;1.27;;;;;;;;;;4933048;28;22618;-71
2022/07/28 02:34:01;;;;;;;5.65;1.30;;;;;;;;;;4934414;28;20073;-72
2022/07/28 02:36:37;;;;;;;5.85;1.20;;;;;;;;;;4935049;28;20052;-72
2022/07/28 02:39:16;;;;;;;5.43;1.63;;;;;;;;;;4935071;28;20109;-72
2022/07/28 02:41:42;;;;;;;5.32;1.40;;;;;;;;;;4934874;28;20038;-73
2022/07/28 02:44:11;;;;;;;4.15;1.60;;;;;;;;;;4934525;28;20045;-72
2022/07/28 02:46:41;;;;;;;6.13;1.80;;;;;;;;;;4934272;28;22409;-71
2022/07/28 02:49:11;;;;;;;5.60;1.92;;;;;;;;;;4933326;28;20689;-71
2022/07/28 02:51:36;;;;;;;4.38;1.75;;;;;;;;;;4933813;28;20066;-72
2022/07/28 02:54:05;;;;;;;6.35;1.63;;;;;;;;;;4934942;28;20038;-73
2022/07/28 02:56:30;;;;;;;4.38;1.40;;;;;;;;;;4934119;28;20679;-71
2022/07/28 02:58:59;;;;;;;5.20;1.52;;;;;;;;;;4933791;28;20041;-72
2022/07/28 03:01:25;;;;;;;6.47;1.23;;;;;;;;;;4933840;28;20043;-71
2022/07/28 03:03:55;;;;;;;4.78;1.45;;;;;;;;;;4941048;28;20069;-71
2022/07/28 03:06:23;;;;;;;4.20;1.60;;;;;;;;;;4933811;28;20084;-71
2022/07/28 03:08:49;;;;;;;6.70;1.27;;;;;;;;;;4934233;28;20125;-72
2022/07/28 03:11:14;;;;;;;6.25;1.77;;;;;;;;;;4933899;28;20038;-72
2022/07/28 03:13:42;;;;;;;4.35;1.25;;;;;;;;;;4933926;28;20842;-72
2022/07/28 03:16:07;;;;;;;5.72;1.17;;;;;;;;;;4933174;28;21040;-71
2022/07/28 03:18:32;;;;;;;5.32;1.35;;;;;;;;;;4933356;28;20042;-72
2022/07/28 03:21:00;;;;;;;5.55;1.27;;;;;;;;;;4932672;28;20168;-71
2022/07/28 03:23:46;;;;;;;2.95;1.30;;;;;;;;;;4934027;28;20046;-71
2022/07/28 03:26:16;;;;;;;2.53;0.88;;;;;;;;;;4932705;28;20067;-72
2022/07/28 03:28:44;;;;;;;2.40;1.17;;;;;;;;;;4933347;28;20042;-72
2022/07/28 03:31:14;;;;;;;2.95;1.10;;;;;;;;;;4932499;28;20042;-71
2022/07/28 03:33:42;;;;;;;3.95;1.25;;;;;;;;;;4933754;28;20034;-72
2022/07/28 03:36:10;;;;;;;3.03;1.02;;;;;;;;;;4933258;28;20053;-71
2022/07/28 03:38:39;;;;;;;4.90;1.25;;;;;;;;;;4933023;28;20031;-72
2022/07/28 03:41:06;;;;;;;5.40;1.40;;;;;;;;;;4933200;28;20209;-71
2022/07/28 03:43:32;;;;;;;4.60;1.20;;;;;;;;;;4933177;28;21214;-72
2022/07/28 03:45:57;;;;;;;2.70;1.00;;;;;;;;;;4930580;28;20039;-71
2022/07/28 03:48:27;;;;;;;2.63;1.23;;;;;;;;;;4930113;28;20046;-72
2022/07/28 03:50:53;;;;;;;5.35;1.35;;;;;;;;;;4931593;28;20761;-70
2022/07/28 03:53:23;;;;;;;3.67;1.17;;;;;;;;;;4936590;28;20182;-70
2022/07/28 03:55:52;;;;;;;4.30;1.55;;;;;;;;;;4931278;28;20832;-72
2022/07/28 03:58:20;;;;;;;7.05;1.60;;;;;;;;;;4930933;28;20039;-71
2022/07/28 04:00:46;;;;;;;2.95;1.60;;;;;;;;;;4961194;28;20128;-70
2022/07/28 04:03:12;;;;;;;6.60;2.03;;;;;;;;;;4931366;28;20043;-71
2022/07/28 04:05:37;;;;;;;8.52;1.60;;;;;;;;;;4930386;28;20062;-70
2022/07/28 04:08:03;;;;;;;3.92;1.50;;;;;;;;;;4931216;28;21215;-71
2022/07/28 04:10:29;;;;;;;3.40;1.40;;;;;;;;;;4931073;28;20043;-71
2022/07/28 04:12:55;;;;;;;3.72;1.35;;;;;;;;;;4931754;28;20050;-72
2022/07/28 04:15:23;;;;;;;4.30;1.50;;;;;;;;;;4935090;28;20027;-72
2022/07/28 04:17:49;;;;;;;4.13;1.20;;;;;;;;;;4944521;28;20149;-72
2022/07/28 04:20:16;;;;;;;5.75;1.40;;;;;;;;;;4931383;28;20047;-70
2022/07/28 04:22:45;;;;;;;5.38;1.50;;;;;;;;;;4930855;28;20041;-72
2022/07/28 04:25:14;;;;;;;4.45;1.73;;;;;;;;;;4932105;28;20066;-71
2022/07/28 04:27:40;;;;;;;4.60;1.48;;;;;;;;;;4938008;28;20031;-71
2022/07/28 04:30:07;;;;;;;5.50;1.50;;;;;;;;;;4931905;28;20046;-72
2022/07/28 04:32:34;;;;;;;5.75;1.73;;;;;;;;;;4929363;28;20582;-73
2022/07/28 04:35:00;;;;;;;4.55;1.67;;;;;;;;;;4938462;28;22020;-72
2022/07/28 04:37:26;;;;;;;3.42;1.40;;;;;;;;;;4932022;28;20023;-73
2022/07/28 04:39:51;;;;;;;5.53;1.67;;;;;;;;;;4933843;28;20046;-71
2022/07/28 04:42:19;;;;;;;4.05;1.70;;;;;;;;;;4930200;28;20047;-73
2022/07/28 04:44:44;;;;;;;5.60;1.50;;;;;;;;;;4933034;28;21097;-72
2022/07/28 04:47:11;;;;;;;5.55;1.40;;;;;;;;;;4933931;28;20045;-74
2022/07/28 04:49:37;;;;;;;5.03;1.30;;;;;;;;;;4947707;28;20079;-73
2022/07/28 04:52:02;;;;;;;6.57;1.30;;;;;;;;;;4932291;28;20043;-72
2022/07/28 04:54:28;;;;;;;4.28;1.52;;;;;;;;;;4934150;28;20035;-71
2022/07/28 04:56:55;;;;;;;4.00;1.30;;;;;;;;;;4932272;28;20038;-71
2022/07/28 04:59:21;;;;;;;3.75;1.13;;;;;;;;;;4936358;28;20034;-73
2022/07/28 05:01:46;;;;;;;6.60;1.13;;;;;;;;;;4935958;28;20087;-72
2022/07/28 05:04:11;;;;;;;5.53;1.10;;;;;;;;;;4937635;28;20050;-72
2022/07/28 05:06:37;;;;;;;4.53;1.40;;;;;;;;;;4936340;28;20037;-73
2022/07/28 05:09:02;;;;;;;3.47;1.23;;;;;;;;;;4934447;28;20560;-72
2022/07/28 05:11:27;;;;;;;4.80;1.48;;;;;;;;;;4940155;28;20034;-72
2022/07/28 05:13:52;;;;;;;4.57;1.42;;;;;;;;;;4941940;28;20038;-73
2022/07/28 05:16:18;;;;;;;4.05;1.35;;;;;;;;;;4937865;28;20054;-71
2022/07/28 05:18:44;;;;;;;4.03;1.30;;;;;;;;;;4936548;28;20073;-72
2022/07/28 05:21:09;;;;;;;7.10;1.20;;;;;;;;;;4945920;28;20057;-72
2022/07/28 05:23:34;;;;;;;4.88;0.90;;;;;;;;;;4936161;28;20137;-73
2022/07/28 05:26:00;;;;;;;3.75;1.00;;;;;;;;;;4936305;28;20045;-72
2022/07/28 05:28:25;;;;;;;2.10;1.00;;;;;;;;;;4940538;28;20044;-73
2022/07/28 05:30:51;;;;;;;4.75;1.38;;;;;;;;;;4936109;28;20038;-73
2022/07/28 05:33:17;;;;;;;4.72;1.05;;;;;;;;;;4936831;28;20578;-72
2022/07/28 05:35:46;;;;;;;3.58;1.13;;;;;;;;;;4937425;28;20234;-73
2022/07/28 05:38:11;;;;;;;5.07;1.25;;;;;;;;;;4935038;28;20031;-73
2022/07/28 05:40:37;;;;;;;2.08;1.00;;;;;;;;;;4935984;28;20081;-72
2022/07/28 05:43:05;;;;;;;3.30;1.17;;;;;;;;;;4937812;28;20065;-73
2022/07/28 05:45:33;;;;;;;5.20;1.17;;;;;;;;;;4937596;28;20031;-72
2022/07/28 05:47:58;;;;;;;2.88;0.98;;;;;;;;;;4935621;28;20054;-73
2022/07/28 05:50:24;;;;;;;3.28;1.05;;;;;;;;;;4955505;28;20855;-73
2022/07/28 05:52:50;;;;;;;5.43;1.08;;;;;;;;;;4930691;28;20035;-73
2022/07/28 05:55:16;;;;;;;3.35;1.10;;;;;;;;;;4935250;28;20061;-74
2022/07/28 05:57:45;;;;;;;5.75;1.10;;;;;;;;;;4935605;28;20116;-72
2022/07/28 06:00:11;;;;;;;3.90;1.33;;;;;;;;;;4936024;28;20039;-72
2022/07/28 06:02:37;;;;;;;2.75;0.82;;;;;;;;;;4938981;28;20141;-72
2022/07/28 06:05:05;;;;;;;4.28;1.10;;;;;;;;;;4936626;28;20034;-71
2022/07/28 06:07:30;;;;;;;6.78;1.13;;;;;;;;;;4935911;28;20043;-71
2022/07/28 06:09:56;;;;;;;3.38;1.00;;;;;;;;;;4934804;28;20058;-72
2022/07/28 06:12:22;;;;;;;2.40;1.10;;;;;;;;;;4935719;28;20985;-72
2022/07/28 06:14:47;;;;;;;4.15;1.23;;;;;;;;;;4936389;28;20788;-72
2022/07/28 06:17:14;;;;;;;3.38;1.13;;;;;;;;;;4940128;28;20122;-72
2022/07/28 06:19:40;;;;;;;2.65;1.08;;;;;;;;;;4935994;28;20160;-73
2022/07/28 06:22:05;;;;;;;6.78;1.42;;;;;;;;;;4937869;28;20067;-73
2022/07/28 06:24:33;;;;;;;3.72;1.10;;;;;;;;;;4937770;28;20050;-72
2022/07/28 06:27:01;;;;;;;5.20;1.20;;;;;;;;;;4932585;28;20095;-71
2022/07/28 06:29:27;;;;;;;3.40;1.10;;;;;;;;;;4920647;28;20066;-71
2022/07/28 06:31:52;;;;;;;3.03;1.05;;;;;;;;;;4932986;28;20120;-72
2022/07/28 06:34:20;;;;;;;4.60;1.20;;;;;;;;;;4931654;28;20309;-71
2022/07/28 06:36:45;;;;;;;7.30;1.23;;;;;;;;;;4932503;28;20537;-72
2022/07/28 06:39:11;;;;;;;3.40;1.20;;;;;;;;;;4931743;28;20105;-73
2022/07/28 06:41:40;;;;;;;4.20;1.02;;;;;;;;;;4934790;28;20042;-71
2022/07/28 06:44:05;;;;;;;4.93;1.17;;;;;;;;;;4932734;28;20131;-71
2022/07/28 06:46:31;;;;;;;5.68;1.38;;;;;;;;;;4934035;28;20355;-72
2022/07/28 06:48:56;;;;;;;5.13;1.25;;;;;;;;;;4931026;28;20971;-71
2022/07/28 06:51:22;;;;;;;3.70;1.00;;;;;;;;;;4932501;28;20034;-72
2022/07/28 06:53:47;;;;;;;5.28;1.10;;;;;;;;;;4937424;28;20265;-71
2022/07/28 06:56:13;;;;;;;3.47;1.02;;;;;;;;;;4939821;28;20118;-71
2022/07/28 06:58:38;;;;;;;3.10;1.00;;;;;;;;;;4941019;28;20035;-72
2022/07/28 07:01:06;;;;;;;6.93;1.30;;;;;;;;;;4933555;28;20528;-71
2022/07/28 07:03:32;;;;;;;4.75;1.13;;;;;;;;;;4937498;28;20046;-71
2022/07/28 07:05:57;;;;;;;4.35;1.27;;;;;;;;;;4934371;28;20038;-73
2022/07/28 07:08:22;;;;;;;4.72;1.20;;;;;;;;;;4935052;28;20039;-74
2022/07/28 07:10:47;;;;;;;6.03;1.40;;;;;;;;;;4939858;28;20850;-73
2022/07/28 07:13:13;;;;;;;2.28;1.00;;;;;;;;;;4933426;28;20050;-73
2022/07/28 07:15:38;;;;;;;3.33;1.20;;;;;;;;;;4934455;28;20043;-73
2022/07/28 07:18:06;;;;;;;4.10;0.98;;;;;;;;;;4939668;28;22473;-72
2022/07/28 07:20:33;;;;;;;3.72;1.00;;;;;;;;;;4933103;28;20047;-73
2022/07/28 07:22:59;;;;;;;4.20;1.00;;;;;;;;;;4934410;28;20066;-72
2022/07/28 07:25:24;;;;;;;2.58;0.98;;;;;;;;;;4947387;28;20041;-74
2022/07/28 07:27:50;;;;;;;3.22;1.20;;;;;;;;;;4930973;28;20035;-73
2022/07/28 07:30:15;;;;;;;4.45;1.38;;;;;;;;;;4931512;28;20579;-73
2022/07/28 07:32:43;;;;;;;2.60;0.82;;;;;;;;;;4934590;28;20140;-72
2022/07/28 07:35:09;;;;;;;4.07;0.88;;;;;;;;;;4931011;28;21092;-72
2022/07/28 07:37:35;;;;;;;4.22;1.00;;;;;;;;;;4932163;28;20026;-73
2022/07/28 07:40:01;;;;;;;3.88;1.00;;;;;;;;;;4933614;28;20186;-73
2022/07/28 07:42:26;;;;;;;5.60;1.13;;;;;;;;;;4933579;28;20051;-74
2022/07/28 07:44:52;;;;;;;6.43;1.10;;;;;;;;;;4933735;28;20821;-74
2022/07/28 07:47:17;;;;;;;2.80;0.88;;;;;;;;;;4933062;28;20146;-75
2022/07/28 07:49:45;;;;;;;3.33;1.00;;;;;;;;;;4932640;28;20260;-74
2022/07/28 07:52:11;;;;;;;4.88;0.80;;;;;;;;;;4938317;28;20050;-73
2022/07/28 07:54:36;;;;;;;3.75;1.02;;;;;;;;;;4933256;28;20062;-75
2022/07/28 07:57:01;;;;;;;3.40;0.65;;;;;;;;;;4933950;28;20043;-74
2022/07/28 07:59:27;;;;;;;3.47;1.25;;;;;;;;;;4933289;28;20041;-74
2022/07/28 08:01:55;;;;;;;3.63;1.10;;;;;;;;;;4933462;28;20047;-73
2022/07/28 08:04:22;;;;;;;3.40;0.90;;;;;;;;;;4939450;28;20097;-72
2022/07/28 08:06:48;;;;;;;2.42;0.75;;;;;;;;;;4956783;28;20702;-71
2022/07/28 08:09:14;;;;;;;6.05;1.13;;;;;;;;;;4931522;28;20035;-71
2022/07/28 08:11:39;;;;;;;6.68;1.05;;;;;;;;;;4939806;28;20510;-71
2022/07/28 08:14:04;;;;;;;3.75;0.90;;;;;;;;;;4929023;28;20216;-70
2022/07/28 08:16:30;;;;;;;4.38;1.00;;;;;;;;;;4931090;28;20389;-71
2022/07/28 08:18:58;;;;;;;5.28;0.90;;;;;;;;;;4930770;28;20580;-72
2022/07/28 08:21:24;;;;;;;3.67;1.00;;;;;;;;;;4932262;28;20686;-73
2022/07/28 08:23:49;;;;;;;5.75;1.02;;;;;;;;;;4931538;28;20450;-73
2022/07/28 08:26:17;;;;;;;2.00;0.75;;;;;;;;;;4937174;28;20039;-71
2022/07/28 08:28:42;;;;;;;3.17;1.10;;;;;;;;;;4932501;28;20624;-71
2022/07/28 08:31:08;;;;;;;2.75;0.90;;;;;;;;;;4933665;28;20606;-72
2022/07/28 08:33:33;;;;;;;3.72;0.93;;;;;;;;;;4935985;28;20398;-72
2022/07/28 08:36:01;;;;;;;2.17;0.95;;;;;;;;;;4936704;28;20238;-71
2022/07/28 08:38:26;;;;;;;4.53;1.10;;;;;;;;;;4937737;28;20285;-71
2022/07/28 08:40:54;;;;;;;4.35;0.80;;;;;;;;;;4937355;28;20058;-71
2022/07/28 08:43:23;;;;;;;5.00;1.00;;;;;;;;;;4937708;28;20361;-71
2022/07/28 08:45:51;;;;;;;4.05;1.10;;;;;;;;;;4936149;28;20192;-71
2022/07/28 08:48:19;;;;;;;4.47;1.08;;;;;;;;;;4944309;28;25259;-70
2022/07/28 08:50:46;;;;;;;4.35;0.90;;;;;;;;;;4937392;28;20034;-70
2022/07/28 08:53:13;;;;;;;2.63;0.93;;;;;;;;;;4935841;28;20122;-71
2022/07/28 08:55:39;;;;;;;5.60;1.08;;;;;;;;;;4948768;28;20254;-71
2022/07/28 08:58:04;;;;;;;2.03;0.80;;;;;;;;;;4944760;28;21009;-70
2022/07/28 09:00:30;;;;;;;3.30;1.00;;;;;;;;;;4951337;28;20465;-72
2022/07/28 09:02:56;;;;;;;3.45;1.00;;;;;;;;;;4936771;28;20041;-70
2022/07/28 09:05:22;;;;;;;3.67;0.85;;;;;;;;;;4951155;28;20732;-73
2022/07/28 09:07:51;;;;;;;1.85;0.82;;;;;;;;;;4935572;28;20038;-70
2022/07/28 09:10:17;;;;;;;3.58;0.80;;;;;;;;;;4935725;28;20059;-71
2022/07/28 09:12:42;;;;;;;5.57;1.08;;;;;;;;;;4932677;28;20354;-71
2022/07/28 09:15:12;;;;;;;3.63;0.98;;;;;;;;;;4935852;28;20078;-72
2022/07/28 09:17:38;;;;;;;4.35;0.82;;;;;;;;;;4933765;28;20070;-71
2022/07/28 09:20:07;;;;;;;3.92;0.70;;;;;;;;;;4942087;28;20179;-71
2022/07/28 09:22:32;;;;;;;3.90;0.88;;;;;;;;;;4933943;28;20038;-72
2022/07/28 09:24:58;;;;;;;2.47;0.77;;;;;;;;;;4933425;28;20809;-72
2022/07/28 09:27:23;;;;;;;1.83;0.70;;;;;;;;;;4935728;28;20038;-71
2022/07/28 09:29:57;;;;;;;3.67;0.80;;;;;;;;;;4934466;28;20182;-72
2022/07/28 09:32:22;;;;;;;3.25;1.00;;;;;;;;;;4947926;28;20043;-71
2022/07/28 09:34:49;;;;;;;3.92;0.90;;;;;;;;;;4934873;28;20511;-70
2022/07/28 09:37:21;;;;;;;2.38;0.95;;;;;;;;;;4938384;28;20397;-71
2022/07/28 09:39:48;;;;;;;2.90;0.93;;;;;;;;;;4933992;28;20609;-72
2022/07/28 09:42:13;;;;;;;3.60;0.85;;;;;;;;;;4919654;28;20049;-71
2022/07/28 09:44:41;;;;;;;2.25;0.80;;;;;;;;;;4932262;28;20034;-70
2022/07/28 09:47:23;;;;;;;4.07;1.20;;;;;;;;;;4932319;28;20208;-72
2022/07/28 09:49:49;;;;;;;3.30;1.13;;;;;;;;;;4934367;28;20041;-72
2022/07/28 09:52:37;;;;;;;3.58;1.30;;;;;;;;;;4942781;28;20281;-71
2022/07/28 09:55:05;;;;;;;2.30;0.90;;;;;;;;;;4946624;28;20594;-71
2022/07/28 09:57:32;;;;;;;2.55;0.90;;;;;;;;;;4958708;28;20479;-72
2022/07/28 09:59:58;;;;;;;4.93;0.90;;;;;;;;;;4947469;28;20042;-69
2022/07/28 10:02:24;;;;;;;6.88;1.15;;;;;;;;;;4965630;28;20376;-73
2022/07/28 10:04:52;;;;;;;5.93;1.10;;;;;;;;;;4955082;28;20043;-72
2022/07/28 10:07:18;;;;;;;4.07;1.13;;;;;;;;;;4965475;28;20729;-71
2022/07/28 10:09:54;;;;;;;2.42;0.75;;;;;;;;;;4954097;28;20087;-74
2022/07/28 10:12:21;;;;;;;2.50;0.80;;;;;;;;;;4936127;28;20602;-72
2022/07/28 10:14:50;;;;;;;5.70;0.80;;;;;;;;;;4940247;28;20152;-72
2022/07/28 10:17:28;;;;;;;4.53;1.00;;;;;;;;;;4936216;28;20034;-74
2022/07/28 10:19:57;;;;;;;29.83;1.83;;;;;;;;;;4934469;28;20038;-73
2022/07/28 10:22:25;;;;;;;3.47;1.10;;;;;;;;;;4934099;28;20151;-72
2022/07/28 10:24:51;;;;;;;4.78;0.90;;;;;;;;;;4935721;28;20042;-74
2022/07/28 10:27:17;;;;;;;3.83;0.90;;;;;;;;;;4933893;28;20066;-74
2022/07/28 10:29:45;;;;;;;3.58;0.80;;;;;;;;;;4934825;28;20806;-74
2022/07/28 10:32:11;;;;;;;12.63;1.15;;;;;;;;;;4934810;28;20094;-73
2022/07/28 10:34:38;;;;;;;1.90;0.85;;;;;;;;;;4934869;28;20038;-74
2022/07/28 10:37:05;;;;;;;4.57;0.88;;;;;;;;;;4935613;28;20030;-74
2022/07/28 10:39:46;;;;;;;4.97;0.90;;;;;;;;;;4934227;28;20109;-73
2022/07/28 10:42:12;;;;;;;1.02;0.70;;;;;;;;;;4935207;28;20054;-74
2022/07/28 10:44:38;;;;;;;1.55;0.73;;;;;;;;;;4948319;28;20046;-74
2022/07/28 10:47:10;;;;;;;3.15;1.05;;;;;;;;;;4933764;28;20130;-75
2022/07/28 10:49:38;;;;;;;2.65;0.90;;;;;;;;;;4934109;28;20066;-75
2022/07/28 10:52:05;;;;;;;6.45;0.95;;;;;;;;;;4934333;28;20031;-72
2022/07/28 10:54:33;;;;;;;4.75;0.90;;;;;;;;;;4935602;28;20035;-74
2022/07/28 10:57:02;;;;;;;4.50;1.10;;;;;;;;;;4935137;28;20050;-73
2022/07/28 10:59:32;;;;;;;6.18;1.00;;;;;;;;;;4935427;28;20035;-73
2022/07/28 11:01:58;;;;;;;4.32;1.10;;;;;;;;;;4939973;28;21588;-73
2022/07/28 11:04:42;;;;;;;4.55;1.20;;;;;;;;;;4934695;28;20285;-72
2022/07/28 11:07:09;;;;;;;4.10;1.30;;;;;;;;;;4934378;28;20035;-72
2022/07/28 11:09:37;;;;;;;1.48;0.80;;;;;;;;;;4935989;28;20033;-73
2022/07/28 11:12:05;;;;;;;2.88;0.80;;;;;;;;;;4937296;28;20085;-72
2022/07/28 11:14:34;;;;;;;2.92;0.80;;;;;;;;;;4934927;28;20170;-77
2022/07/28 11:17:02;;;;;;;1.85;0.90;;;;;;;;;;4934677;28;20035;-73
2022/07/28 11:19:28;;;;;;;5.03;1.10;;;;;;;;;;4935208;28;20045;-72
2022/07/28 11:22:12;;;;;;;2.53;1.05;;;;;;;;;;4935167;28;20066;-74
2022/07/28 11:25:12;;;;;;;2.03;0.85;;;;;;;;;;4934382;28;20054;-74
2022/07/28 11:27:40;;;;;;;3.03;0.80;;;;;;;;;;4914529;28;20038;-73
2022/07/28 11:30:13;;;;;;;3.58;1.00;;;;;;;;;;4932150;28;20502;-71
2022/07/28 11:32:55;;;;;;;2.78;0.98;;;;;;;;;;4930396;28;20298;-73
2022/07/28 11:35:20;;;;;;;2.22;1.08;;;;;;;;;;4930276;28;20531;-72
2022/07/28 11:38:02;;;;;;;3.25;0.90;;;;;;;;;;4931461;28;22058;-73
2022/07/28 11:40:40;;;;;;;2.85;1.08;;;;;;;;;;4930778;28;20866;-72
2022/07/28 11:43:20;;;;;;;2.28;0.93;;;;;;;;;;4932839;28;20201;-72
2022/07/28 11:45:46;;;;;;;3.95;1.00;;;;;;;;;;4931522;28;20062;-72
2022/07/28 11:48:16;;;;;;;1.75;1.00;;;;;;;;;;4932551;28;20264;-73
2022/07/28 11:50:41;;;;;;;2.65;1.05;;;;;;;;;;4932762;28;20035;-77
2022/07/28 11:53:06;;;;;;;3.50;1.00;;;;;;;;;;4913884;28;20129;-72
2022/07/28 11:55:32;;;;;;;4.35;0.73;;;;;;;;;;4932528;28;20034;-69
2022/07/28 11:58:01;;;;;;;5.32;0.93;;;;;;;;;;4932326;28;20240;-72
2022/07/28 12:00:27;;;;;;;4.00;1.23;;;;;;;;;;4931649;28;20034;-74
2022/07/28 12:02:53;;;;;;;3.00;1.00;;;;;;;;;;4930865;28;20788;-72
2022/07/28 12:05:21;;;;;;;2.05;0.90;;;;;;;;;;4932158;28;20035;-72
2022/07/28 12:07:46;;;;;;;2.78;0.85;;;;;;;;;;4931731;28;20042;-74
2022/07/28 12:10:31;;;;;;;1.90;0.85;;;;;;;;;;4931158;28;20050;-73
2022/07/28 12:12:58;;;;;;;2.45;0.90;;;;;;;;;;4939778;28;20043;-72
2022/07/28 12:15:24;;;;;;;4.63;1.10;;;;;;;;;;4927519;28;20142;-72
2022/07/28 12:17:50;;;;;;;3.28;0.80;;;;;;;;;;4933007;28;20035;-76
2022/07/28 12:20:17;;;;;;;2.55;0.90;;;;;;;;;;4930403;28;20057;-74
2022/07/28 12:23:12;;;;;;;4.68;1.05;;;;;;;;;;4931952;28;20054;-75
2022/07/28 12:25:45;;;;;;;2.80;1.13;;;;;;;;;;4920358;28;20047;-75
2022/07/28 12:28:13;;;;;;;5.97;1.00;;;;;;;;;;4928920;28;20065;-76
2022/07/28 12:30:39;;;;;;;4.68;0.90;;;;;;;;;;4933814;28;21333;-72
2022/07/28 12:33:14;;;;;;;3.22;1.02;;;;;;;;;;4929553;28;20026;-76
2022/07/28 12:35:42;;;;;;;3.80;1.20;;;;;;;;;;4945935;28;20081;-74
2022/07/28 12:38:07;;;;;;;2.72;1.05;;;;;;;;;;4930753;28;20142;-74
2022/07/28 12:40:33;;;;;;;3.53;1.40;;;;;;;;;;4931805;28;20880;-73
2022/07/28 12:42:58;;;;;;;3.38;1.17;;;;;;;;;;4935137;28;20874;-73
2022/07/28 12:45:25;;;;;;;2.85;1.00;;;;;;;;;;4930951;28;20435;-75
2022/07/28 12:47:50;;;;;;;7.05;1.30;;;;;;;;;;4931505;28;20226;-74
2022/07/28 12:50:18;;;;;;;2.65;1.10;;;;;;;;;;4946031;28;20138;-75
2022/07/28 12:53:00;;;;;;;4.47;1.10;;;;;;;;;;4931125;28;20031;-75
2022/07/28 12:55:31;;;;;;;4.55;0.80;;;;;;;;;;4931360;28;20035;-75
2022/07/28 12:57:57;;;;;;;2.75;0.88;;;;;;;;;;4930681;28;20794;-75
2022/07/28 13:00:23;;;;;;;2.47;0.80;;;;;;;;;;4931582;28;20031;-76
2022/07/28 13:02:52;;;;;;;4.03;1.10;;;;;;;;;;4934476;28;20090;-75
2022/07/28 13:05:30;;;;;;;3.75;1.00;;;;;;;;;;4930883;28;20586;-75
2022/07/28 13:07:59;;;;;;;3.22;1.10;;;;;;;;;;4932128;28;20035;-75
2022/07/28 13:10:26;;;;;;;8.00;1.15;;;;;;;;;;4918994;28;20039;-73
2022/07/28 13:13:05;;;;;;;5.20;1.10;;;;;;;;;;4933322;28;20047;-75
2022/07/28 13:15:31;;;;;;;3.83;1.13;;;;;;;;;;4931532;28;20039;-76
2022/07/28 13:17:57;;;;;;;4.10;0.90;;;;;;;;;;4929331;28;20407;-74
2022/07/28 13:20:23;;;;;;;3.20;1.15;;;;;;;;;;4930531;28;20034;-75
2022/07/28 13:22:49;;;;;;;3.58;0.93;;;;;;;;;;4934194;28;20046;-74
2022/07/28 13:25:15;;;;;;;3.45;1.30;;;;;;;;;;4933737;28;20512;-73
2022/07/28 13:27:40;;;;;;;4.72;1.00;;;;;;;;;;4933549;28;20121;-76
2022/07/28 13:30:06;;;;;;;2.97;1.08;;;;;;;;;;4933266;28;20318;-75
2022/07/28 13:32:32;;;;;;;2.35;0.93;;;;;;;;;;4947646;28;20193;-75
2022/07/28 13:34:58;;;;;;;1.70;0.80;;;;;;;;;;4933116;28;20511;-75
2022/07/28 13:37:23;;;;;;;2.08;1.00;;;;;;;;;;4932685;28;20039;-75
2022/07/28 13:39:50;;;;;;;3.72;1.00;;;;;;;;;;4937003;28;20458;-75
2022/07/28 13:42:15;;;;;;;2.00;1.10;;;;;;;;;;4933802;28;20055;-66
2022/07/28 13:44:40;;;;;;;3.45;0.90;;;;;;;;;;4932553;28;20552;-66
2022/07/28 13:47:06;;;;;;;2.03;0.85;;;;;;;;;;4932893;28;20492;-66
2022/07/28 13:49:32;;;;;;;2.03;1.00;;;;;;;;;;4931813;28;20038;-66
2022/07/28 13:52:00;;;;;;;4.10;1.20;;;;;;;;;;4932698;28;20039;-67
2022/07/28 13:54:26;;;;;;;3.25;1.20;;;;;;;;;;4932749;28;20158;-67
2022/07/28 13:56:53;;;;;;;2.67;0.90;;;;;;;;;;4932440;28;20128;-66
2022/07/28 13:59:19;;;;;;;1.95;0.80;;;;;;;;;;4937533;28;20070;-68
2022/07/28 14:01:45;;;;;;;2.30;0.90;;;;;;;;;;4935899;28;20053;-71
2022/07/28 14:04:13;;;;;;;5.75;1.13;;;;;;;;;;4936236;28;20034;-72
2022/07/28 14:06:38;;;;;;;2.90;0.80;;;;;;;;;;4938055;28;20089;-71
2022/07/28 14:09:03;;;;;;;1.35;0.80;;;;;;;;;;4936505;28;20117;-68
2022/07/28 14:11:31;;;;;;;1.92;0.90;;;;;;;;;;4941572;28;20073;-70
2022/07/28 14:13:58;;;;;;;4.05;1.00;;;;;;;;;;4937653;28;20043;-73
2022/07/28 14:16:24;;;;;;;2.58;0.82;;;;;;;;;;4937823;28;20210;-70
2022/07/28 14:18:52;;;;;;;2.33;1.20;;;;;;;;;;4936207;28;20034;-68
2022/07/28 14:21:19;;;;;;;2.60;0.93;;;;;;;;;;4936144;28;20047;-72
2022/07/28 14:23:45;;;;;;;3.63;1.33;;;;;;;;;;4938751;28;20030;-70
2022/07/28 14:26:10;;;;;;;3.08;1.10;;;;;;;;;;4939877;28;20052;-69
2022/07/28 14:28:36;;;;;;;3.97;1.08;;;;;;;;;;4940021;28;20065;-70
2022/07/28 14:31:03;;;;;;;4.22;1.27;;;;;;;;;;4937384;28;20065;-71
2022/07/28 14:33:30;;;;;;;3.97;1.90;;;;;;;;;;4939958;28;20149;-68
2022/07/28 14:35:55;;;;;;;3.53;1.17;;;;;;;;;;4938529;28;20076;-69
2022/07/28 14:38:21;;;;;;;2.53;1.10;;;;;;;;;;4939286;28;20046;-69
2022/07/28 14:40:49;;;;;;;3.45;1.00;;;;;;;;;;4936028;28;20035;-69
2022/07/28 14:43:14;;;;;;;3.15;1.00;;;;;;;;;;4937179;28;20031;-69
2022/07/28 14:45:42;;;;;;;1.83;0.88;;;;;;;;;;4936011;28;20064;-69